This is the latest recevied weather packets stored in our database for station/object AG1T-20. If no packets are shown the sender has not sent any weather packets the latest 10 day(s).
| Time | Temp. | Humidity | Pressure | Rain* | Wind** | Luminosity | Snow |
|---|---|---|---|---|---|---|---|
| 1777534204 | 3.89° C | 83% | 1022.4 hPa | 0 mm | - | 0 W/m² | - |
| 1777533605 | 3.89° C | 82% | 1022.4 hPa | 0 mm | - | 0 W/m² | - |
| 1777533005 | 4.44° C | 80% | 1022.4 hPa | 0 mm | - | 0 W/m² | - |
| 1777532404 | 4.44° C | 82% | 1022.4 hPa | 0 mm | - | 0 W/m² | - |
| 1777531805 | 3.89° C | 83% | 1022.3 hPa | 0 mm | - | 0 W/m² | - |
| 1777531205 | 4.44° C | 82% | 1022.3 hPa | 0 mm | - | 0 W/m² | - |
| 1777530605 | 4.44° C | 83% | 1022.3 hPa | 0 mm | - | 0 W/m² | - |
| 1777530005 | 3.89° C | 83% | 1022.3 hPa | 0 mm | - | 0 W/m² | - |
| 1777529404 | 4.44° C | 82% | 1022.3 hPa | 0 mm | - | 0 W/m² | - |
| 1777528805 | 5° C | 81% | 1022.3 hPa | 0 mm | - | 0 W/m² | - |
| 1777528204 | 5° C | 81% | 1022.4 hPa | 0 mm | - | 0 W/m² | - |
| 1777527604 | 5° C | 82% | 1022.4 hPa | 0 mm | - | 0 W/m² | - |
| 1777527005 | 4.44° C | 82% | 1022.4 hPa | 0 mm | - | 0 W/m² | - |
| 1777526405 | 4.44° C | 81% | 1022.4 hPa | 0 mm | - | 0 W/m² | - |
| 1777525805 | 5° C | 80% | 1022.4 hPa | 0 mm | - | 0 W/m² | - |
| 1777525205 | 5° C | 79% | 1022.4 hPa | 0 mm | - | 0 W/m² | - |
| 1777524605 | 6.11° C | 74% | 1021.9 hPa | 0 mm | - | 0 W/m² | - |
| 1777524005 | 6.11° C | 75% | 1021.9 hPa | 0 mm | - | 0 W/m² | - |
| 1777523405 | 6.11° C | 73% | 1021.9 hPa | 0 mm | - | 0 W/m² | - |
| 1777522805 | 5.56° C | 74% | 1021.9 hPa | 0 mm | - | 0 W/m² | - |
| 1777522204 | 5.56° C | 72% | 1021.9 hPa | 0 mm | - | 0 W/m² | - |
| 1777521605 | 6.67° C | 71% | 1021.9 hPa | 0 mm | - | 0 W/m² | - |
| 1777521005 | 6.67° C | 70% | 1021.2 hPa | 0 mm | - | 0 W/m² | - |
| 1777520404 | 6.67° C | 70% | 1021.2 hPa | 0 mm | - | 0 W/m² | - |
| 1777519804 | 7.22° C | 69% | 1021.2 hPa | 0 mm | - | 0 W/m² | - |
* Rain latest hour (hover to see other rain measurements)
** Current wind speed in m/s (hover to see current wind gust speed)